Time;durP1;ratioP1;P1;durP2;ratioP2;P2;SDS_P1;SDS_P2;PMS_P1;PMS_P2;Temp;Humidity;BMP_temperature;BMP_pressure;BME280_temperature;BME280_humidity;BME280_pressure;Samples;Min_cycle;Max_cycle;Signal;HPM_P1;HPM_P2
2021/10/16 00:00:48;;;;;;;186.10;171.93;;;7.20;99.90;;;;;;5055389;28;20171;-77
2021/10/16 00:03:14;;;;;;;179.80;164.67;;;7.10;99.90;;;;;;5054978;28;20620;-78
2021/10/16 00:05:39;;;;;;;174.63;160.73;;;7.10;99.90;;;;;;5055222;28;20547;-77
2021/10/16 00:08:05;;;;;;;153.57;140.30;;;7.10;99.90;;;;;;5054467;28;20184;-77
2021/10/16 00:10:31;;;;;;;171.97;157.73;;;7.20;99.90;;;;;;5055222;28;20165;-77
2021/10/16 00:12:58;;;;;;;181.60;166.60;;;7.20;99.90;;;;;;5054733;28;20399;-77
2021/10/16 00:15:25;;;;;;;153.73;140.32;;;7.20;99.90;;;;;;5055059;28;20181;-77
2021/10/16 00:17:50;;;;;;;129.43;117.03;;;7.10;99.90;;;;;;5054568;28;20203;-77
2021/10/16 00:20:16;;;;;;;112.17;100.50;;;7.00;99.90;;;;;;5055111;28;20161;-78
2021/10/16 00:22:42;;;;;;;121.53;109.60;;;7.00;99.90;;;;;;5124579;22;20219;-82
2021/10/16 00:25:08;;;;;;;128.13;115.23;;;7.00;99.90;;;;;;5056931;28;20164;-81
2021/10/16 00:27:34;;;;;;;115.22;103.53;;;6.90;99.90;;;;;;5057874;28;20973;-82
2021/10/16 00:29:59;;;;;;;114.47;102.87;;;6.90;99.90;;;;;;5057031;28;20278;-82
2021/10/16 00:32:25;;;;;;;119.97;107.30;;;6.90;99.90;;;;;;5055624;28;20194;-82
2021/10/16 00:34:51;;;;;;;103.47;92.47;;;6.90;99.90;;;;;;5056288;28;20192;-82
2021/10/16 00:37:16;;;;;;;99.93;85.97;;;6.80;99.90;;;;;;5056492;28;20219;-82
2021/10/16 00:39:42;;;;;;;108.33;97.13;;;6.70;99.90;;;;;;5054851;28;20560;-82
2021/10/16 00:42:08;;;;;;;123.07;111.00;;;6.70;99.90;;;;;;5056545;28;20470;-82
2021/10/16 00:44:34;;;;;;;139.93;126.80;;;6.60;99.90;;;;;;5056183;28;20251;-82
2021/10/16 00:47:00;;;;;;;127.18;115.18;;;6.60;99.90;;;;;;5056627;28;20184;-82
2021/10/16 00:49:27;;;;;;;145.90;132.83;;;6.50;99.90;;;;;;5054503;28;20181;-82
2021/10/16 00:51:53;;;;;;;137.25;124.30;;;6.40;99.90;;;;;;5059760;28;20172;-82
2021/10/16 00:54:22;;;;;;;144.35;131.13;;;6.40;99.90;;;;;;5059817;28;20203;-82
2021/10/16 00:56:50;;;;;;;137.52;125.35;;;6.30;99.90;;;;;;5060121;28;20172;-82
2021/10/16 00:59:18;;;;;;;179.88;165.77;;;6.30;99.90;;;;;;5060130;28;20671;-82
2021/10/16 01:01:44;;;;;;;165.15;151.27;;;6.30;99.90;;;;;;5059984;28;20180;-82
2021/10/16 01:04:10;;;;;;;156.77;143.17;;;6.30;99.90;;;;;;5059116;28;20168;-82
2021/10/16 01:06:37;;;;;;;157.23;144.40;;;6.30;99.90;;;;;;5060877;28;20169;-82
2021/10/16 01:09:10;;;;;;;197.43;182.73;;;6.20;99.90;;;;;;5059888;28;20180;-82
2021/10/16 01:11:46;;;;;;;156.05;143.13;;;6.10;99.90;;;;;;5060255;28;20149;-82
2021/10/16 01:14:12;;;;;;;158.27;144.80;;;6.10;99.90;;;;;;5059885;28;20211;-82
2021/10/16 01:16:42;;;;;;;153.40;140.53;;;6.10;99.90;;;;;;5059995;28;20164;-82
2021/10/16 01:19:13;;;;;;;149.40;136.52;;;6.10;99.90;;;;;;5058749;28;20185;-82
2021/10/16 01:21:44;;;;;;;194.05;179.38;;;6.10;99.90;;;;;;5060250;28;20169;-82
2021/10/16 01:24:11;;;;;;;124.30;112.22;;;6.10;99.90;;;;;;5060543;28;20192;-82
2021/10/16 01:26:39;;;;;;;146.48;133.70;;;6.10;99.90;;;;;;5058451;28;20259;-82
2021/10/16 01:29:07;;;;;;;145.30;132.73;;;6.10;99.90;;;;;;5060264;28;20184;-82
2021/10/16 01:31:35;;;;;;;152.25;138.88;;;6.00;99.90;;;;;;5060271;28;20175;-82
2021/10/16 01:34:02;;;;;;;176.73;162.70;;;6.00;99.90;;;;;;5060479;28;20184;-82
2021/10/16 01:36:56;;;;;;;129.88;117.70;;;5.90;99.90;;;;;;5059811;28;20167;-82
2021/10/16 01:39:23;;;;;;;141.45;128.77;;;5.90;99.90;;;;;;5059947;28;20562;-82
2021/10/16 01:41:49;;;;;;;146.30;133.52;;;5.90;99.90;;;;;;5060396;28;20169;-82
2021/10/16 01:44:18;;;;;;;170.47;155.97;;;5.90;99.90;;;;;;5058786;28;20225;-82
2021/10/16 01:46:44;;;;;;;135.60;123.32;;;5.90;99.90;;;;;;5058801;28;20497;-82
2021/10/16 01:49:14;;;;;;;128.43;115.88;;;5.90;99.90;;;;;;5059537;28;20192;-82
2021/10/16 01:51:41;;;;;;;146.43;133.55;;;5.90;99.90;;;;;;5057052;28;20168;-82
2021/10/16 01:54:12;;;;;;;141.50;128.82;;;5.90;99.90;;;;;;5058332;28;20302;-82
2021/10/16 01:56:38;;;;;;;146.05;133.43;;;5.90;99.90;;;;;;5058675;28;20184;-82
2021/10/16 01:59:15;;;;;;;156.30;143.13;;;5.80;99.90;;;;;;5059737;28;20182;-82
2021/10/16 02:01:41;;;;;;;152.82;139.85;;;5.80;99.90;;;;;;5060903;28;20145;-82
2021/10/16 02:04:07;;;;;;;145.37;132.27;;;5.80;99.90;;;;;;5059834;28;20516;-82
2021/10/16 02:06:33;;;;;;;197.43;182.67;;;5.70;99.90;;;;;;5059282;28;20446;-82
2021/10/16 02:08:58;;;;;;;160.93;147.73;;;5.70;99.90;;;;;;5059072;28;20437;-82
2021/10/16 02:11:24;;;;;;;176.67;163.27;;;5.70;99.90;;;;;;5058960;28;20195;-82
2021/10/16 02:13:50;;;;;;;171.77;157.70;;;5.70;99.90;;;;;;5059286;28;20160;-82
2021/10/16 02:16:15;;;;;;;149.60;137.13;;;5.70;99.90;;;;;;5058209;28;20318;-82
2021/10/16 02:18:41;;;;;;;152.83;140.20;;;5.70;99.90;;;;;;5058519;28;20180;-82
2021/10/16 02:21:07;;;;;;;148.97;135.80;;;5.70;99.90;;;;;;5059284;28;20164;-82
2021/10/16 02:23:32;;;;;;;162.70;149.63;;;5.70;99.90;;;;;;5057813;28;20655;-82
2021/10/16 02:25:58;;;;;;;152.77;140.03;;;5.70;99.90;;;;;;5059594;28;20224;-82
2021/10/16 02:28:24;;;;;;;145.73;133.37;;;5.70;99.90;;;;;;5056489;28;20272;-82
2021/10/16 02:30:49;;;;;;;140.77;128.50;;;5.60;99.90;;;;;;5057689;28;20636;-82
2021/10/16 02:33:15;;;;;;;136.60;123.50;;;5.60;99.90;;;;;;5057247;28;20164;-82
2021/10/16 02:35:40;;;;;;;137.50;125.23;;;5.60;99.90;;;;;;5057344;28;20235;-82
2021/10/16 02:38:07;;;;;;;138.93;126.37;;;5.50;99.90;;;;;;5058626;28;20249;-82
2021/10/16 02:40:34;;;;;;;111.80;100.07;;;5.40;99.90;;;;;;5059070;28;20153;-82
2021/10/16 02:43:01;;;;;;;114.68;103.07;;;5.50;99.90;;;;;;5059525;28;20164;-82
2021/10/16 02:45:27;;;;;;;125.72;113.75;;;5.40;99.90;;;;;;5057837;28;20173;-82
2021/10/16 02:47:52;;;;;;;151.13;138.30;;;5.50;99.90;;;;;;5057741;28;20234;-82
2021/10/16 02:50:18;;;;;;;145.50;133.20;;;5.40;99.90;;;;;;5059469;28;20160;-82
2021/10/16 02:52:43;;;;;;;151.57;139.00;;;5.30;99.90;;;;;;5059029;28;20165;-82
2021/10/16 02:55:10;;;;;;;167.53;153.97;;;5.30;99.90;;;;;;5059051;28;20280;-82
2021/10/16 02:57:36;;;;;;;133.05;120.35;;;5.30;99.90;;;;;;5056150;28;20204;-82
2021/10/16 03:00:03;;;;;;;156.40;143.37;;;5.30;99.90;;;;;;5059684;28;20165;-82
2021/10/16 03:02:28;;;;;;;164.02;150.73;;;5.20;99.90;;;;;;5057532;28;20164;-82
2021/10/16 03:04:54;;;;;;;139.50;127.17;;;5.20;99.90;;;;;;5057329;28;20302;-82
2021/10/16 03:07:20;;;;;;;131.00;119.17;;;5.20;99.90;;;;;;5057324;28;20220;-82
2021/10/16 03:09:45;;;;;;;137.87;125.63;;;5.10;99.90;;;;;;5058903;28;20295;-82
2021/10/16 03:12:11;;;;;;;151.67;139.00;;;5.10;99.90;;;;;;5058075;28;20169;-82
2021/10/16 03:14:40;;;;;;;155.60;142.33;;;5.00;99.90;;;;;;5058208;28;20192;-82
2021/10/16 03:17:05;;;;;;;147.07;134.68;;;5.00;99.90;;;;;;5058733;28;20583;-82
2021/10/16 03:19:31;;;;;;;143.53;131.13;;;5.00;99.90;;;;;;5059035;28;20191;-82
2021/10/16 03:21:56;;;;;;;158.27;145.37;;;5.00;99.90;;;;;;5059074;28;20181;-82
2021/10/16 03:24:24;;;;;;;145.03;132.67;;;5.00;99.90;;;;;;5058674;28;20253;-82
2021/10/16 03:26:53;;;;;;;149.82;136.73;;;5.00;99.90;;;;;;5058788;28;20167;-82
2021/10/16 03:29:18;;;;;;;151.80;138.90;;;5.10;99.90;;;;;;5057211;28;20248;-82
2021/10/16 03:31:44;;;;;;;158.00;145.20;;;5.00;99.90;;;;;;5056731;28;20206;-82
2021/10/16 03:34:10;;;;;;;187.10;172.17;;;5.00;99.90;;;;;;5056593;28;20192;-83
2021/10/16 03:36:36;;;;;;;187.87;173.33;;;5.10;99.90;;;;;;5058166;28;20165;-83
2021/10/16 03:39:02;;;;;;;220.43;204.67;;;5.10;99.90;;;;;;5057377;28;20215;-82
2021/10/16 03:41:28;;;;;;;216.75;201.35;;;5.20;99.90;;;;;;5055368;28;20414;-82
2021/10/16 03:43:53;;;;;;;235.70;220.03;;;5.30;99.90;;;;;;5055336;28;20172;-82
2021/10/16 03:46:22;;;;;;;284.60;266.63;;;5.40;99.90;;;;;;5056252;28;20431;-82
2021/10/16 03:48:51;;;;;;;264.77;247.18;;;5.50;99.90;;;;;;5056819;28;20191;-82
2021/10/16 03:51:16;;;;;;;352.20;331.65;;;5.50;99.90;;;;;;5056767;28;20163;-82
2021/10/16 03:53:42;;;;;;;353.70;333.47;;;5.60;99.90;;;;;;5056214;28;20563;-82
2021/10/16 03:56:08;;;;;;;340.80;321.23;;;5.60;99.90;;;;;;5054786;28;20169;-82
2021/10/16 03:58:33;;;;;;;358.83;338.47;;;5.70;99.90;;;;;;5056233;28;20219;-82
2021/10/16 04:01:03;;;;;;;344.60;324.77;;;5.70;99.90;;;;;;5054720;28;20260;-82
2021/10/16 04:03:29;;;;;;;347.77;328.20;;;5.70;99.90;;;;;;5055026;28;20181;-82
2021/10/16 04:05:55;;;;;;;343.45;323.85;;;5.70;99.90;;;;;;5056505;28;20160;-82
2021/10/16 04:08:27;;;;;;;386.67;364.92;;;5.80;99.90;;;;;;5056180;28;20180;-82
2021/10/16 04:10:53;;;;;;;318.77;300.45;;;5.80;99.90;;;;;;5055220;28;20298;-82
2021/10/16 04:13:19;;;;;;;366.93;345.53;;;5.80;99.90;;;;;;5055827;28;20198;-82
2021/10/16 04:15:44;;;;;;;357.93;337.87;;;5.80;99.90;;;;;;5056750;28;20188;-82
2021/10/16 04:18:10;;;;;;;342.87;324.03;;;5.80;99.90;;;;;;5056456;28;20184;-82
2021/10/16 04:20:36;;;;;;;369.43;349.67;;;5.80;99.90;;;;;;5054857;28;20169;-82
2021/10/16 04:23:05;;;;;;;384.03;363.30;;;5.80;99.90;;;;;;5055323;28;20176;-82
2021/10/16 04:25:30;;;;;;;371.58;351.65;;;5.70;99.90;;;;;;5055338;28;20410;-82
2021/10/16 04:27:56;;;;;;;391.03;370.23;;;5.70;99.90;;;;;;5058941;28;20180;-82
2021/10/16 04:30:22;;;;;;;370.80;350.77;;;5.70;99.90;;;;;;5056250;28;20608;-82
2021/10/16 04:32:48;;;;;;;364.20;343.83;;;5.70;99.90;;;;;;5056813;28;20168;-82
2021/10/16 04:35:14;;;;;;;427.87;404.30;;;5.70;99.90;;;;;;5056155;28;20446;-82
2021/10/16 04:37:40;;;;;;;387.03;366.07;;;5.70;99.90;;;;;;5055688;28;20181;-82
2021/10/16 04:40:26;;;;;;;383.13;362.57;;;5.70;99.90;;;;;;5056491;28;20161;-82
2021/10/16 04:42:53;;;;;;;383.10;362.65;;;5.60;99.90;;;;;;5056135;28;20379;-82
2021/10/16 04:45:20;;;;;;;363.67;343.63;;;5.60;99.90;;;;;;5057828;28;20253;-82
2021/10/16 04:47:49;;;;;;;383.38;361.42;;;5.60;99.90;;;;;;5059467;28;20220;-82
2021/10/16 04:50:15;;;;;;;408.17;384.05;;;5.60;99.90;;;;;;5057653;28;20256;-82
2021/10/16 04:52:46;;;;;;;382.40;360.13;;;5.60;99.90;;;;;;5055612;28;20196;-82
2021/10/16 04:55:12;;;;;;;365.95;344.52;;;5.70;99.90;;;;;;5055456;28;20647;-82
2021/10/16 04:57:38;;;;;;;428.70;403.37;;;5.70;99.90;;;;;;5056305;28;20251;-82
2021/10/16 05:00:06;;;;;;;443.47;418.57;;;5.70;99.90;;;;;;5055048;28;20551;-82
2021/10/16 05:02:32;;;;;;;454.58;428.70;;;5.80;99.90;;;;;;5056278;28;20710;-82
2021/10/16 05:04:58;;;;;;;407.43;383.93;;;5.80;99.90;;;;;;5057011;28;20250;-82
2021/10/16 05:07:23;;;;;;;363.57;342.57;;;5.80;99.90;;;;;;5056820;28;20185;-82
2021/10/16 05:09:49;;;;;;;399.23;375.87;;;5.80;99.90;;;;;;5056537;28;20177;-82
2021/10/16 05:12:16;;;;;;;391.13;367.93;;;5.80;99.90;;;;;;5056400;28;20232;-82
2021/10/16 05:14:43;;;;;;;405.85;383.25;;;5.90;99.90;;;;;;5056260;28;20207;-82
2021/10/16 05:17:08;;;;;;;408.50;385.35;;;5.80;99.90;;;;;;5056668;28;20192;-82
2021/10/16 05:19:34;;;;;;;424.20;401.80;;;5.80;99.90;;;;;;5056452;28;20175;-82
2021/10/16 05:22:00;;;;;;;378.93;357.93;;;5.80;99.90;;;;;;5056993;28;20169;-82
2021/10/16 05:24:26;;;;;;;438.57;415.30;;;5.90;99.90;;;;;;5056282;28;20211;-82
2021/10/16 05:26:51;;;;;;;382.85;361.35;;;5.80;99.90;;;;;;5054911;28;20640;-82
2021/10/16 05:29:17;;;;;;;369.27;348.47;;;5.80;99.90;;;;;;5056462;28;20242;-82
2021/10/16 05:31:43;;;;;;;420.53;398.60;;;5.80;99.90;;;;;;5056397;28;20168;-82
2021/10/16 05:34:08;;;;;;;430.60;407.60;;;5.80;99.90;;;;;;5056750;28;20208;-82
2021/10/16 05:36:34;;;;;;;393.13;372.13;;;5.80;99.90;;;;;;5058155;28;20173;-83
2021/10/16 05:38:59;;;;;;;369.67;349.10;;;5.80;99.90;;;;;;5059899;28;20188;-83
2021/10/16 05:41:25;;;;;;;433.97;411.30;;;5.80;99.90;;;;;;5060100;28;20161;-83
2021/10/16 05:43:51;;;;;;;449.37;425.30;;;5.80;99.90;;;;;;5060670;28;20271;-83
2021/10/16 05:46:16;;;;;;;374.93;354.47;;;5.80;99.90;;;;;;5060547;28;20174;-83
2021/10/16 05:48:42;;;;;;;419.77;397.03;;;5.90;99.90;;;;;;5060212;28;20176;-82
2021/10/16 05:51:08;;;;;;;409.77;387.63;;;5.90;99.90;;;;;;5060073;28;20249;-83
2021/10/16 05:53:34;;;;;;;341.70;322.50;;;5.90;99.90;;;;;;5060355;28;20262;-82
2021/10/16 05:55:59;;;;;;;385.97;364.57;;;5.90;99.90;;;;;;5060066;28;20499;-82
2021/10/16 05:58:25;;;;;;;404.70;383.17;;;5.90;99.90;;;;;;5059899;28;20426;-82
2021/10/16 06:00:54;;;;;;;389.47;368.43;;;5.90;99.90;;;;;;5060108;28;20188;-82
2021/10/16 06:03:20;;;;;;;383.98;362.40;;;6.00;99.90;;;;;;5059207;28;20415;-82
2021/10/16 06:05:46;;;;;;;366.10;345.60;;;5.90;99.90;;;;;;5059102;28;20175;-82
2021/10/16 06:08:11;;;;;;;357.67;337.53;;;5.90;99.90;;;;;;5058957;28;20184;-82
2021/10/16 06:10:37;;;;;;;376.33;355.60;;;5.90;99.90;;;;;;5059104;28;20222;-82
2021/10/16 06:13:03;;;;;;;402.67;381.10;;;5.90;99.90;;;;;;5058645;28;20172;-82
2021/10/16 06:15:31;;;;;;;342.53;322.77;;;5.90;99.90;;;;;;5057215;28;20595;-82
2021/10/16 06:17:57;;;;;;;370.00;348.30;;;6.00;99.90;;;;;;5058444;28;20586;-82
2021/10/16 06:20:29;;;;;;;329.90;310.50;;;6.10;99.90;;;;;;5057917;28;20165;-82
2021/10/16 06:22:55;;;;;;;370.83;349.90;;;6.00;99.90;;;;;;5124995;22;20227;-82
2021/10/16 06:25:20;;;;;;;406.87;384.83;;;6.00;99.90;;;;;;5039268;28;20176;-82
2021/10/16 06:27:46;;;;;;;356.80;336.33;;;6.10;99.90;;;;;;5056981;28;20184;-82
2021/10/16 06:30:12;;;;;;;379.17;358.63;;;6.10;99.90;;;;;;5056810;28;20160;-82
2021/10/16 06:32:37;;;;;;;348.60;329.23;;;6.20;99.90;;;;;;5057026;28;20160;-82
2021/10/16 06:35:05;;;;;;;380.20;359.20;;;6.30;99.90;;;;;;5057249;28;20660;-82
2021/10/16 06:37:30;;;;;;;364.58;343.67;;;6.30;99.90;;;;;;5039394;28;20188;-83
2021/10/16 06:39:59;;;;;;;361.97;341.93;;;6.30;99.90;;;;;;5056895;28;20575;-83
2021/10/16 06:42:25;;;;;;;348.80;328.75;;;6.30;99.90;;;;;;5056950;28;20251;-82
2021/10/16 06:44:50;;;;;;;359.10;338.60;;;6.40;99.90;;;;;;5038884;28;20199;-82
2021/10/16 06:47:16;;;;;;;348.40;328.77;;;6.30;99.90;;;;;;5037803;28;20671;-82
2021/10/16 06:49:42;;;;;;;346.83;326.90;;;6.30;99.90;;;;;;5056359;28;20169;-82
2021/10/16 06:52:07;;;;;;;346.87;327.60;;;6.40;99.90;;;;;;5039986;28;20172;-81
2021/10/16 06:54:33;;;;;;;313.87;294.53;;;6.30;99.90;;;;;;5057218;28;20598;-82
2021/10/16 06:56:59;;;;;;;326.33;306.93;;;6.30;99.90;;;;;;5039392;28;20168;-82
2021/10/16 06:59:24;;;;;;;315.23;296.63;;;6.30;99.90;;;;;;5056996;28;20222;-82
2021/10/16 07:01:50;;;;;;;336.57;317.07;;;6.30;99.90;;;;;;5056870;28;20251;-82
2021/10/16 07:04:15;;;;;;;297.80;277.70;;;6.30;99.90;;;;;;5056909;28;20531;-82
2021/10/16 07:06:41;;;;;;;312.03;293.07;;;6.40;99.90;;;;;;5056008;28;20198;-80
2021/10/16 07:09:07;;;;;;;348.60;328.37;;;6.40;99.90;;;;;;5056060;28;20222;-82
2021/10/16 07:11:33;;;;;;;290.60;272.37;;;6.40;99.90;;;;;;5056525;28;20632;-83
2021/10/16 07:13:58;;;;;;;267.67;249.67;;;6.50;99.90;;;;;;5057314;28;20178;-83
2021/10/16 07:16:24;;;;;;;319.17;300.33;;;6.50;99.90;;;;;;5057054;28;20410;-83
2021/10/16 07:18:50;;;;;;;290.73;272.63;;;6.50;99.90;;;;;;5057164;28;20230;-82
2021/10/16 07:21:15;;;;;;;270.13;252.33;;;6.60;99.90;;;;;;5039301;28;20524;-83
2021/10/16 07:23:41;;;;;;;259.07;241.63;;;6.70;99.90;;;;;;5056521;28;20555;-82
2021/10/16 07:26:08;;;;;;;310.10;290.93;;;6.70;99.90;;;;;;5057072;28;20164;-83
2021/10/16 07:28:33;;;;;;;274.38;256.15;;;6.80;99.90;;;;;;5055940;28;20180;-82
2021/10/16 07:30:59;;;;;;;217.23;200.70;;;6.90;99.90;;;;;;5056167;28;20171;-82
2021/10/16 07:33:25;;;;;;;256.40;238.90;;;6.90;99.90;;;;;;5056510;28;20514;-82
2021/10/16 07:35:50;;;;;;;238.70;221.37;;;6.90;99.90;;;;;;5056376;28;20188;-82
2021/10/16 07:38:16;;;;;;;259.83;241.77;;;6.90;99.90;;;;;;5055832;28;20227;-83
2021/10/16 07:40:42;;;;;;;269.00;250.97;;;7.00;99.90;;;;;;5055990;28;20160;-83
2021/10/16 07:43:08;;;;;;;255.80;237.40;;;7.00;99.90;;;;;;5055528;28;20164;-83
2021/10/16 07:45:34;;;;;;;245.10;227.23;;;7.10;99.90;;;;;;5037754;28;20175;-83
2021/10/16 07:48:00;;;;;;;251.50;234.07;;;7.00;99.90;;;;;;5037980;28;20196;-82
2021/10/16 07:50:26;;;;;;;227.43;210.67;;;7.10;99.90;;;;;;5055687;28;20421;-83
2021/10/16 07:52:51;;;;;;;237.77;220.50;;;7.20;99.90;;;;;;5038162;28;20269;-82
2021/10/16 07:55:17;;;;;;;244.37;227.00;;;7.30;99.90;;;;;;5055248;28;20195;-82
2021/10/16 07:57:42;;;;;;;257.93;240.47;;;7.30;99.90;;;;;;5037760;28;20195;-83
2021/10/16 08:00:09;;;;;;;228.93;212.57;;;7.30;99.90;;;;;;5055939;28;20219;-82
2021/10/16 08:02:35;;;;;;;250.77;233.75;;;7.40;99.90;;;;;;5055478;28;20168;-83
2021/10/16 08:05:02;;;;;;;262.87;245.30;;;7.40;99.90;;;;;;5056110;28;20168;-83
2021/10/16 08:07:30;;;;;;;234.05;217.70;;;7.40;99.90;;;;;;5055970;28;20422;-83
2021/10/16 08:09:56;;;;;;;248.98;231.52;;;7.50;99.90;;;;;;5055159;28;20169;-83
2021/10/16 08:12:22;;;;;;;234.57;217.93;;;7.40;99.90;;;;;;5055364;28;20608;-83
2021/10/16 08:14:48;;;;;;;216.07;198.37;;;7.50;99.90;;;;;;5054635;28;20534;-82
2021/10/16 08:17:13;;;;;;;229.83;213.10;;;7.60;99.90;;;;;;5055454;28;20400;-82
2021/10/16 08:19:39;;;;;;;234.07;217.03;;;7.60;99.90;;;;;;5054759;28;20156;-83
2021/10/16 08:22:05;;;;;;;251.00;233.73;;;7.70;99.90;;;;;;5055171;28;20214;-83
2021/10/16 08:24:30;;;;;;;268.43;250.63;;;7.70;99.90;;;;;;5037372;28;20188;-83
2021/10/16 08:26:56;;;;;;;258.53;240.80;;;7.60;99.90;;;;;;5037255;28;20306;-83
2021/10/16 08:29:22;;;;;;;235.90;218.27;;;7.70;99.90;;;;;;5055247;28;20165;-83
2021/10/16 08:31:48;;;;;;;266.63;248.53;;;7.70;99.90;;;;;;5055131;28;20502;-83
2021/10/16 08:34:13;;;;;;;251.63;233.67;;;7.70;99.90;;;;;;5054783;28;20188;-82
2021/10/16 08:36:42;;;;;;;254.27;236.57;;;7.70;99.90;;;;;;5055065;28;20411;-82
2021/10/16 08:39:08;;;;;;;253.35;236.02;;;7.70;99.90;;;;;;5055761;28;20215;-83
2021/10/16 08:41:34;;;;;;;231.07;214.07;;;7.50;99.90;;;;;;5055177;28;20169;-84
2021/10/16 08:44:00;;;;;;;226.93;209.40;;;7.50;99.90;;;;;;5055837;28;20649;-84
2021/10/16 08:46:30;;;;;;;257.90;239.75;;;7.60;99.90;;;;;;5037908;28;20168;-84
2021/10/16 08:49:02;;;;;;;213.98;195.90;;;7.60;99.90;;;;;;5056009;28;20212;-84
2021/10/16 08:51:28;;;;;;;253.77;235.32;;;7.50;99.90;;;;;;5056177;28;20172;-84
2021/10/16 08:53:54;;;;;;;242.13;224.20;;;7.60;99.90;;;;;;5055733;28;20160;-84
2021/10/16 08:56:24;;;;;;;208.93;192.90;;;7.70;99.90;;;;;;5057090;28;20403;-83
2021/10/16 08:58:51;;;;;;;232.20;214.65;;;7.80;99.90;;;;;;5039061;28;20185;-83
2021/10/16 09:01:17;;;;;;;232.73;215.27;;;8.00;99.90;;;;;;5038512;28;20176;-83
2021/10/16 09:03:46;;;;;;;213.93;196.83;;;8.20;99.90;;;;;;5056033;28;20156;-83
2021/10/16 09:06:12;;;;;;;256.00;237.38;;;8.30;99.90;;;;;;5037454;28;20180;-83
2021/10/16 09:08:42;;;;;;;252.97;233.93;;;8.40;99.90;;;;;;5038121;28;20184;-83
2021/10/16 09:11:27;;;;;;;235.48;218.30;;;8.20;99.90;;;;;;5056534;28;20466;-83
2021/10/16 09:14:00;;;;;;;262.05;243.20;;;8.20;99.90;;;;;;5043125;28;20192;-84
2021/10/16 09:17:05;;;;;;;265.98;246.77;;;8.20;99.90;;;;;;5060743;28;20161;-83
2021/10/16 09:19:42;;;;;;;221.75;205.00;;;8.20;99.90;;;;;;5002875;28;20215;-84
2021/10/16 09:22:21;;;;;;;221.93;204.85;;;8.20;99.90;;;;;;5060237;28;20171;-83
2021/10/16 09:29:28;;;;;;;233.05;215.55;;;8.40;99.90;;;;;;5031478;28;20332;-82
2021/10/16 09:32:19;;;;;;;;;;;;;;;;;;;;;
2021/10/16 09:38:21;;;;;;;249.48;230.77;;;8.90;99.90;;;;;;4951205;28;20253;-83
2021/10/16 09:41:18;;;;;;;270.40;251.15;;;8.90;99.90;;;;;;5042202;28;20519;-83
2021/10/16 09:44:47;;;;;;;;;;;;;;;;;;;;;
2021/10/16 09:51:39;;;;;;;;;;;;;;;;;;;;;
2021/10/16 09:55:02;;;;;;;271.70;251.15;;;9.10;99.90;;;;;;4979721;28;20231;-83
2021/10/16 09:58:18;;;;;;;255.48;236.38;;;9.00;99.90;;;;;;4967600;28;20202;-83
2021/10/16 10:01:41;;;;;;;244.50;224.85;;;9.10;99.90;;;;;;5059547;28;20207;-82
2021/10/16 10:04:54;;;;;;;233.82;214.25;;;9.10;99.90;;;;;;5053494;28;20179;-83
2021/10/16 10:11:33;;;;;;;254.10;234.35;;;9.40;99.90;;;;;;5053015;28;20164;-81
2021/10/16 10:15:18;;;;;;;275.17;255.07;;;9.60;99.90;;;;;;5040929;28;20204;-83
2021/10/16 10:21:44;;;;;;;268.60;247.85;;;10.00;99.90;;;;;;4979393;28;20178;-82
2021/10/16 10:24:30;;;;;;;255.90;236.60;;;9.80;99.90;;;;;;4962995;28;20547;-82
2021/10/16 10:41:25;;;;;;;319.52;297.48;;;10.20;99.90;;;;;;4940243;29;20173;-82
2021/10/16 10:45:05;;;;;;;317.05;295.73;;;10.40;99.90;;;;;;4924603;29;20175;-82
2021/10/16 10:48:34;;;;;;;361.95;338.10;;;10.10;99.90;;;;;;5041810;28;20169;-82
2021/10/16 10:55:13;;;;;;;336.02;314.00;;;10.40;99.90;;;;;;4913093;29;20755;-82
2021/10/16 11:01:41;;;;;;;;;;;;;;;;;;;;;
2021/10/16 11:05:00;;;;;;;368.17;343.88;;;10.30;99.90;;;;;;4983418;28;20273;-81
2021/10/16 11:12:17;;;;;;;;;;;;;;;;;;;;;
2021/10/16 11:18:37;;;;;;;212.95;195.52;;;11.40;99.90;;;;;;4977064;28;20290;-82
2021/10/16 11:22:28;;;;;;;;;;;;;;;;;;;;;
2021/10/16 11:40:07;;;;;;;;;;;;;;;;;;;;;
2021/10/16 11:47:04;;;;;;;;;;;;;;;;;;;;;
2021/10/16 11:50:29;;;;;;;120.00;99.27;;;12.90;99.90;;;;;;4757108;29;20518;-82
2021/10/16 12:03:39;;;;;;;;;;;;;;;;;;;;;
2021/10/16 12:25:01;;;;;;;85.37;44.93;;;13.30;99.90;;;;;;5115005;22;20482;-82
2021/10/16 12:27:29;;;;;;;84.17;41.10;;;13.40;99.90;;;;;;5060018;28;20458;-82
2021/10/16 12:29:55;;;;;;;89.70;50.33;;;13.50;99.90;;;;;;5062504;28;20395;-80
2021/10/16 12:32:21;;;;;;;86.57;36.00;;;13.70;99.90;;;;;;5061690;28;20968;-80
2021/10/16 12:34:52;;;;;;;90.37;55.90;;;13.40;95.70;;;;;;5061706;28;20325;-80
2021/10/16 12:37:18;;;;;;;90.33;49.87;;;13.40;99.90;;;;;;5062877;28;20438;-80
2021/10/16 12:39:46;;;;;;;80.40;24.90;;;13.60;99.50;;;;;;5059001;28;20407;-80
2021/10/16 12:42:26;;;;;;;81.67;22.50;;;13.70;96.90;;;;;;5063047;28;20498;-80
2021/10/16 12:45:05;;;;;;;84.13;33.43;;;13.80;95.40;;;;;;5061499;28;20402;-80
2021/10/16 12:47:30;;;;;;;80.87;21.30;;;13.60;97.40;;;;;;5067172;28;20507;-80
2021/10/16 12:50:03;;;;;;;79.50;31.07;;;13.50;94.90;;;;;;5065324;28;20443;-80
2021/10/16 12:52:31;;;;;;;81.70;27.23;;;13.50;97.10;;;;;;5067161;28;20171;-80
2021/10/16 12:54:59;;;;;;;81.30;17.10;;;13.40;97.40;;;;;;5064600;28;20466;-80
2021/10/16 12:57:29;;;;;;;77.00;16.80;;;13.50;95.40;;;;;;5063999;28;21010;-80
2021/10/16 12:59:55;;;;;;;75.17;20.93;;;13.50;94.40;;;;;;5062653;28;20406;-80
2021/10/16 13:02:21;;;;;;;81.07;28.60;;;13.60;89.30;;;;;;5060085;28;20399;-80
2021/10/16 13:04:49;;;;;;;86.97;44.30;;;13.60;89.00;;;;;;5061717;28;20402;-82
2021/10/16 13:07:15;;;;;;;80.60;30.90;;;13.50;72.00;;;;;;5060848;28;20402;-82
2021/10/16 13:09:42;;;;;;;79.97;40.43;;;13.40;70.30;;;;;;5061211;28;20410;-82
2021/10/16 13:12:08;;;;;;;74.93;28.63;;;13.40;74.50;;;;;;5060238;28;20403;-82
2021/10/16 13:14:34;;;;;;;77.13;31.73;;;13.40;69.80;;;;;;5060166;28;20443;-82
2021/10/16 13:17:00;;;;;;;89.90;36.80;;;13.20;66.60;;;;;;5062350;28;20421;-82
2021/10/16 13:19:25;;;;;;;89.50;56.57;;;13.20;66.40;;;;;;5062314;28;20409;-82
2021/10/16 13:21:51;;;;;;;73.80;16.10;;;13.00;68.40;;;;;;5062452;28;20169;-82
2021/10/16 13:24:17;;;;;;;84.87;44.33;;;13.00;80.30;;;;;;5062205;28;20215;-82
2021/10/16 13:26:45;;;;;;;82.17;30.83;;;13.00;73.60;;;;;;5062527;28;20172;-82
2021/10/16 13:29:11;;;;;;;80.33;38.87;;;13.00;67.10;;;;;;5061323;28;20188;-82
2021/10/16 13:31:37;;;;;;;81.20;40.07;;;13.10;59.00;;;;;;5062551;28;20413;-82
2021/10/16 13:34:03;;;;;;;75.60;29.93;;;13.10;63.00;;;;;;5066857;28;20183;-82
2021/10/16 13:36:29;;;;;;;82.43;49.87;;;13.10;53.40;;;;;;5067253;28;20544;-82
2021/10/16 13:38:54;;;;;;;75.50;29.20;;;13.10;55.70;;;;;;5067069;28;20423;-82
2021/10/16 13:41:21;;;;;;;82.87;33.30;;;13.10;54.90;;;;;;5067244;28;20398;-82
2021/10/16 13:43:47;;;;;;;87.35;50.38;;;13.10;55.70;;;;;;5066281;28;20222;-82
2021/10/16 13:46:13;;;;;;;78.17;25.53;;;13.10;63.80;;;;;;5065890;28;20168;-82
2021/10/16 13:48:39;;;;;;;80.45;32.15;;;13.20;61.10;;;;;;5065889;28;20451;-82
2021/10/16 13:51:05;;;;;;;77.07;24.93;;;13.10;60.70;;;;;;5062376;28;20654;-82
2021/10/16 13:53:31;;;;;;;75.27;21.83;;;13.10;61.80;;;;;;5065989;28;20220;-82
2021/10/16 13:55:56;;;;;;;74.37;23.40;;;13.20;62.30;;;;;;5064845;28;20195;-83
2021/10/16 13:58:22;;;;;;;78.60;37.50;;;13.20;64.10;;;;;;5062164;28;20180;-79
2021/10/16 14:00:49;;;;;;;89.07;58.20;;;13.30;68.10;;;;;;5062499;28;20161;-81
2021/10/16 14:03:16;;;;;;;89.00;61.87;;;13.30;69.80;;;;;;5062652;28;20164;-83
2021/10/16 14:05:42;;;;;;;84.40;52.27;;;13.30;73.30;;;;;;5061425;28;20413;-83
2021/10/16 14:08:10;;;;;;;83.33;33.50;;;13.20;63.50;;;;;;5061496;28;20455;-83
2021/10/16 14:10:36;;;;;;;74.97;24.63;;;13.00;64.40;;;;;;5063282;28;20161;-83
2021/10/16 14:13:03;;;;;;;75.87;22.30;;;13.20;67.50;;;;;;5059987;28;20403;-83
2021/10/16 14:15:29;;;;;;;78.27;26.80;;;13.20;64.30;;;;;;5060882;28;20442;-83
2021/10/16 14:17:55;;;;;;;74.65;23.92;;;13.20;66.20;;;;;;5058112;28;20419;-82
2021/10/16 14:20:21;;;;;;;82.90;35.53;;;13.30;71.60;;;;;;5060177;28;20228;-85
2021/10/16 14:22:46;;;;;;;83.33;37.07;;;13.40;66.90;;;;;;5061911;28;20168;-82